createdAt,value
2022-08-14T00:01:46.163Z,15.40
2022-08-14T00:04:34.794Z,11.80
2022-08-14T00:07:01.407Z,8.60
2022-08-14T00:09:29.427Z,14.00
2022-08-14T00:11:56.751Z,11.10
2022-08-14T00:14:21.834Z,9.70
2022-08-14T00:16:44.997Z,14.40
2022-08-14T00:19:19.848Z,12.90
2022-08-14T00:21:44.423Z,12.60
2022-08-14T00:24:07.878Z,13.20
2022-08-14T00:26:34.826Z,10.70
2022-08-14T00:28:59.824Z,10.10
2022-08-14T00:31:35.142Z,8.30
2022-08-14T00:34:36.555Z,11.60
2022-08-14T00:36:54.439Z,12.10
2022-08-14T00:39:18.009Z,13.70
2022-08-14T00:41:42.330Z,10.00
2022-08-14T00:44:05.358Z,8.50
2022-08-14T00:46:33.031Z,9.60
2022-08-14T00:48:58.768Z,17.20
2022-08-14T00:51:34.842Z,12.50
2022-08-14T00:54:03.053Z,12.50
2022-08-14T00:56:30.938Z,9.70
2022-08-14T00:58:56.105Z,12.00
2022-08-14T01:01:21.184Z,9.00
2022-08-14T01:03:45.330Z,10.20
2022-08-14T01:06:09.217Z,9.00
2022-08-14T01:08:51.727Z,9.20
2022-08-14T01:11:19.070Z,11.40
2022-08-14T01:13:43.559Z,15.00
2022-08-14T01:16:10.199Z,10.40
2022-08-14T01:19:01.247Z,10.60
2022-08-14T01:21:53.093Z,11.40
2022-08-14T01:24:22.862Z,7.50
2022-08-14T01:26:53.793Z,10.10
2022-08-14T01:29:16.469Z,9.00
2022-08-14T01:32:02.018Z,12.30
2022-08-14T01:35:20.191Z,9.70
2022-08-14T01:37:14.064Z,10.90
2022-08-14T01:39:39.617Z,10.60
2022-08-14T01:42:02.810Z,9.90
2022-08-14T01:44:32.800Z,9.70
2022-08-14T01:47:01.139Z,10.90
2022-08-14T01:49:26.671Z,13.20
2022-08-14T01:52:00.761Z,7.00
2022-08-14T01:54:24.707Z,11.90
2022-08-14T01:57:03.192Z,9.80
2022-08-14T01:59:37.825Z,6.80
2022-08-14T02:02:04.049Z,8.60
2022-08-14T02:04:54.547Z,7.20
2022-08-14T02:07:15.676Z,8.00
2022-08-14T02:09:40.554Z,9.90
2022-08-14T02:12:05.003Z,11.30
2022-08-14T02:14:32.198Z,9.30
2022-08-14T02:16:57.464Z,11.10
2022-08-14T02:19:27.444Z,11.70
2022-08-14T02:21:58.896Z,10.80
2022-08-14T02:24:39.617Z,10.40
2022-08-14T02:28:25.440Z,13.10
2022-08-14T02:30:00.668Z,8.30
2022-08-14T02:32:30.613Z,12.60
2022-08-14T02:35:00.883Z,11.50
2022-08-14T02:37:47.453Z,12.60
2022-08-14T02:40:16.498Z,12.30
2022-08-14T02:42:39.694Z,7.90
2022-08-14T02:45:17.669Z,12.00
2022-08-14T02:47:47.543Z,16.60
2022-08-14T02:50:10.396Z,14.90
2022-08-14T02:52:57.353Z,13.30
2022-08-14T02:55:20.099Z,14.10
2022-08-14T02:57:43.591Z,11.30
2022-08-14T03:00:09.925Z,15.90
2022-08-14T03:02:56.399Z,17.40
2022-08-14T03:05:18.456Z,13.30
2022-08-14T03:07:40.952Z,14.50
2022-08-14T03:10:25.931Z,19.90
2022-08-14T03:12:47.026Z,12.10
2022-08-14T03:15:16.441Z,14.40
2022-08-14T03:17:56.412Z,17.60
2022-08-14T03:20:22.680Z,18.40
2022-08-14T03:22:46.709Z,17.50
2022-08-14T03:25:13.865Z,20.90
2022-08-14T03:27:48.418Z,16.00
2022-08-14T03:30:23.192Z,13.50
2022-08-14T03:32:46.762Z,22.10
2022-08-14T03:35:11.382Z,17.30
2022-08-14T03:39:10.482Z,11.50
2022-08-14T03:40:25.365Z,11.00
2022-08-14T03:42:50.731Z,17.80
2022-08-14T03:45:20.330Z,9.70
2022-08-14T03:48:01.805Z,7.10
2022-08-14T03:50:31.551Z,7.30
2022-08-14T03:52:57.580Z,6.40
2022-08-14T03:55:23.529Z,6.70
2022-08-14T03:57:46.276Z,5.70
2022-08-14T04:00:43.288Z,6.10
2022-08-14T04:02:59.213Z,8.20
2022-08-14T04:05:21.801Z,10.00
2022-08-14T04:08:00.169Z,5.80
2022-08-14T04:10:32.639Z,5.70
2022-08-14T04:13:03.564Z,6.30
2022-08-14T04:15:27.287Z,5.70
2022-08-14T04:17:52.360Z,4.90
2022-08-14T04:20:25.590Z,6.10
2022-08-14T04:22:50.553Z,8.40
2022-08-14T04:25:19.936Z,6.60
2022-08-14T04:28:01.795Z,7.30
2022-08-14T04:30:30.779Z,5.50
2022-08-14T04:33:02.249Z,6.80
2022-08-14T04:35:56.295Z,5.60
2022-08-14T04:38:36.683Z,5.70
2022-08-14T04:41:21.436Z,5.50
2022-08-14T04:43:44.649Z,7.00
2022-08-14T04:46:56.886Z,5.90
2022-08-14T04:49:03.489Z,7.90
2022-08-14T04:51:46.244Z,5.80
2022-08-14T04:54:17.210Z,6.70
2022-08-14T04:56:42.728Z,8.30
2022-08-14T04:59:10.730Z,8.80
2022-08-14T05:01:39.623Z,5.60
2022-08-14T05:04:02.934Z,7.10
2022-08-14T05:06:37.587Z,6.50
2022-08-14T05:09:01.858Z,6.40
2022-08-14T05:11:24.586Z,8.10
2022-08-14T05:16:31.419Z,7.00
2022-08-14T05:19:17.930Z,5.70
2022-08-14T05:21:59.303Z,7.10
2022-08-14T05:24:26.219Z,6.00
2022-08-14T05:26:51.246Z,6.70
2022-08-14T05:29:14.477Z,8.30
2022-08-14T05:31:43.418Z,6.70
2022-08-14T05:34:09.918Z,6.00
2022-08-14T05:36:34.939Z,8.80
2022-08-14T05:38:59.394Z,9.30
2022-08-14T05:41:22.561Z,9.40
2022-08-14T05:43:48.318Z,7.60
2022-08-14T05:46:15.235Z,8.80
2022-08-14T05:48:43.302Z,8.00
2022-08-14T05:51:08.784Z,10.80
2022-08-14T05:53:33.602Z,8.00
2022-08-14T05:55:59.190Z,8.20
2022-08-14T05:58:33.892Z,9.00
2022-08-14T06:01:04.262Z,7.90
2022-08-14T06:03:28.883Z,10.30
2022-08-14T06:05:55.248Z,6.30
2022-08-14T06:08:35.572Z,7.50
2022-08-14T06:11:06.254Z,7.40
2022-08-14T06:13:44.607Z,9.30
2022-08-14T06:16:08.216Z,8.10
2022-08-14T06:18:32.405Z,10.60
2022-08-14T06:20:57.545Z,9.30
2022-08-14T06:23:20.425Z,7.60
2022-08-14T06:25:45.601Z,7.30
2022-08-14T06:28:27.495Z,8.00
2022-08-14T06:30:50.963Z,7.10
2022-08-14T06:33:16.196Z,9.50
2022-08-14T06:35:41.227Z,7.60
2022-08-14T06:38:04.486Z,7.90
2022-08-14T06:40:29.329Z,7.80
2022-08-14T06:43:00.219Z,8.60
2022-08-14T06:45:26.172Z,9.30
2022-08-14T06:47:52.114Z,7.90
2022-08-14T06:50:19.607Z,8.10
2022-08-14T06:52:50.338Z,8.40
2022-08-14T06:55:16.633Z,9.60
2022-08-14T06:57:45.810Z,10.90
2022-08-14T07:00:22.241Z,12.00
2022-08-14T07:03:08.394Z,7.60
2022-08-14T07:05:55.664Z,10.60
2022-08-14T07:08:26.541Z,10.60
2022-08-14T07:10:54.273Z,11.60
2022-08-14T07:13:24.569Z,7.30
2022-08-14T07:15:50.513Z,8.60
2022-08-14T07:18:26.424Z,9.80
2022-08-14T07:20:49.501Z,8.90
2022-08-14T07:23:20.752Z,11.20
2022-08-14T07:25:47.182Z,8.70
2022-08-14T07:28:20.878Z,9.40
2022-08-14T07:30:50.826Z,7.90
2022-08-14T07:33:16.994Z,9.50
2022-08-14T07:35:58.354Z,8.10
2022-08-14T07:38:24.212Z,7.90
2022-08-14T07:40:48.647Z,8.90
2022-08-14T07:43:16.703Z,12.00
2022-08-14T07:45:42.342Z,8.50
2022-08-14T07:48:14.974Z,10.30
2022-08-14T07:50:39.587Z,8.00
2022-08-14T07:53:04.112Z,9.40
2022-08-14T07:55:29.174Z,8.10
2022-08-14T07:57:55.813Z,9.10
2022-08-14T08:00:31.581Z,7.90
2022-08-14T08:03:00.129Z,10.30
2022-08-14T08:05:24.422Z,8.90
2022-08-14T08:07:47.666Z,7.90
2022-08-14T08:11:01.897Z,7.50
2022-08-14T08:13:24.484Z,8.50
2022-08-14T08:15:50.930Z,8.90
2022-08-14T08:18:20.377Z,10.20
2022-08-14T08:20:53.502Z,7.30
2022-08-14T08:23:20.454Z,7.30
2022-08-14T08:25:47.784Z,7.20
2022-08-14T08:28:19.694Z,7.60
2022-08-14T08:30:51.444Z,7.10
2022-08-14T08:33:16.831Z,11.90
2022-08-14T08:35:46.924Z,7.60
2022-08-14T08:39:17.485Z,9.70
2022-08-14T08:41:02.926Z,8.50
2022-08-14T08:43:34.099Z,7.60
2022-08-14T08:45:57.756Z,7.90
2022-08-14T08:48:31.434Z,7.10
2022-08-14T08:50:58.629Z,9.40
2022-08-14T08:53:23.727Z,8.50
2022-08-14T08:55:47.211Z,8.70
2022-08-14T08:58:16.387Z,10.70
2022-08-14T09:00:49.040Z,8.00
2022-08-14T09:03:15.927Z,7.00
2022-08-14T09:05:56.188Z,8.50
2022-08-14T09:08:30.442Z,9.20
2022-08-14T09:10:59.690Z,7.70
2022-08-14T09:13:26.852Z,9.20
2022-08-14T09:15:55.937Z,9.10
2022-08-14T09:18:23.906Z,7.80
2022-08-14T09:20:47.577Z,9.20
2022-08-14T09:23:12.804Z,8.60
2022-08-14T09:26:00.464Z,9.90
2022-08-14T09:28:26.981Z,7.60
2022-08-14T09:30:55.020Z,10.50
2022-08-14T09:33:31.832Z,7.50
2022-08-14T09:36:13.708Z,8.80
2022-08-14T09:38:53.828Z,8.00
2022-08-14T09:41:17.067Z,9.60
2022-08-14T09:43:45.291Z,9.50
2022-08-14T09:46:17.136Z,9.50
2022-08-14T09:48:47.164Z,9.10
2022-08-14T09:51:20.929Z,7.80
2022-08-14T09:54:18.611Z,9.70
2022-08-14T09:56:51.559Z,11.20
2022-08-14T09:59:25.327Z,8.00
2022-08-14T10:01:52.724Z,9.50
2022-08-14T10:04:33.395Z,8.70
2022-08-14T10:07:02.398Z,8.60
2022-08-14T10:09:27.673Z,8.80
2022-08-14T10:11:59.853Z,9.60
2022-08-14T10:14:35.310Z,8.00
2022-08-14T10:17:02.684Z,8.40
2022-08-14T10:19:29.045Z,9.90
2022-08-14T10:21:58.786Z,10.20
2022-08-14T10:24:46.366Z,9.70
2022-08-14T10:27:26.998Z,9.00
2022-08-14T10:29:51.861Z,9.20
2022-08-14T10:32:17.888Z,9.10
2022-08-14T10:34:52.489Z,9.30
2022-08-14T10:37:19.702Z,8.50
2022-08-14T10:40:02.119Z,10.00
2022-08-14T10:42:40.291Z,9.00
2022-08-14T10:45:21.584Z,9.10
2022-08-14T10:48:07.547Z,9.40
2022-08-14T10:50:34.190Z,8.90
2022-08-14T10:53:05.951Z,9.00
2022-08-14T10:55:38.473Z,10.20
2022-08-14T10:58:01.300Z,9.70
2022-08-14T11:00:30.336Z,9.10
2022-08-14T11:03:01.784Z,8.60
2022-08-14T11:05:28.536Z,11.30
2022-08-14T11:07:51.214Z,8.60
2022-08-14T11:10:20.389Z,12.40
2022-08-14T11:12:48.314Z,7.80
2022-08-14T11:15:11.331Z,8.00
2022-08-14T11:17:36.310Z,8.00
2022-08-14T11:20:00.286Z,8.70
2022-08-14T11:22:56.605Z,9.30
2022-08-14T11:25:14.074Z,9.50
2022-08-14T11:27:41.426Z,10.40
2022-08-14T11:30:50.811Z,8.70
2022-08-14T11:32:54.805Z,9.10
2022-08-14T11:35:21.861Z,9.90
2022-08-14T11:37:59.003Z,10.90
2022-08-14T11:40:28.590Z,9.40
2022-08-14T11:42:59.559Z,11.70
2022-08-14T11:45:29.815Z,13.00
2022-08-14T11:48:12.796Z,8.80
2022-08-14T11:50:40.671Z,10.10
2022-08-14T11:53:08.496Z,10.70
2022-08-14T11:55:40.525Z,10.10
2022-08-14T11:58:08.921Z,10.00
2022-08-14T12:00:38.200Z,9.40
2022-08-14T12:03:05.348Z,13.40
2022-08-14T12:05:32.479Z,11.40
2022-08-14T12:08:05.479Z,9.00
2022-08-14T12:10:37.279Z,8.80
2022-08-14T12:13:17.638Z,9.40
2022-08-14T12:15:44.579Z,9.20
2022-08-14T12:18:19.768Z,9.80
2022-08-14T12:20:45.890Z,12.60
2022-08-14T12:23:28.595Z,10.60
2022-08-14T12:26:31.610Z,9.10
2022-08-14T12:29:00.419Z,9.60
2022-08-14T12:31:23.660Z,10.70
2022-08-14T12:34:04.043Z,8.30
2022-08-14T12:36:35.639Z,9.40
2022-08-14T12:39:00.363Z,10.80
2022-08-14T12:41:28.047Z,10.60
2022-08-14T12:44:02.144Z,8.90
2022-08-14T12:46:35.927Z,11.10
2022-08-14T12:48:59.628Z,10.30
2022-08-14T12:51:27.323Z,9.80
2022-08-14T12:53:51.054Z,10.70
2022-08-14T12:56:32.702Z,9.00
2022-08-14T12:58:57.790Z,10.00
2022-08-14T13:01:26.335Z,8.80
2022-08-14T13:03:52.966Z,9.30
2022-08-14T13:06:19.469Z,10.40
2022-08-14T13:08:46.483Z,9.70
2022-08-14T13:11:19.150Z,8.00
2022-08-14T13:13:44.854Z,9.80
2022-08-14T13:16:20.542Z,8.40
2022-08-14T13:18:58.371Z,8.30
2022-08-14T13:21:21.453Z,8.90
2022-08-14T13:23:45.414Z,9.30
2022-08-14T13:26:08.237Z,9.60
2022-08-14T13:28:41.311Z,11.60
2022-08-14T13:31:20.511Z,9.40
2022-08-14T13:33:47.450Z,6.80
2022-08-14T13:36:23.654Z,8.40
2022-08-14T13:38:50.032Z,10.10
2022-08-14T13:41:15.478Z,8.10
2022-08-14T13:43:49.333Z,9.30
2022-08-14T13:46:25.753Z,9.30
2022-08-14T13:48:51.774Z,8.70
2022-08-14T13:51:18.490Z,9.30
2022-08-14T13:54:07.122Z,7.90
2022-08-14T13:56:36.594Z,8.90
2022-08-14T13:59:02.652Z,9.40
2022-08-14T14:01:32.094Z,10.80
2022-08-14T14:03:56.684Z,8.70
2022-08-14T14:06:20.423Z,7.90
2022-08-14T14:08:47.901Z,8.20
2022-08-14T14:11:10.953Z,10.60
2022-08-14T14:13:36.250Z,8.90
2022-08-14T14:16:03.906Z,12.90
2022-08-14T14:18:29.652Z,9.70
2022-08-14T14:20:57.560Z,8.30
2022-08-14T14:23:21.264Z,9.10
2022-08-14T14:25:51.183Z,9.20
2022-08-14T14:28:24.467Z,8.50
2022-08-14T14:30:53.316Z,8.40
2022-08-14T14:33:44.693Z,8.00
2022-08-14T14:36:01.946Z,10.00
2022-08-14T14:38:32.820Z,9.50
2022-08-14T14:41:01.288Z,8.30
2022-08-14T14:43:28.032Z,10.20
2022-08-14T14:45:52.902Z,8.90
2022-08-14T14:48:15.751Z,7.60
2022-08-14T14:50:39.823Z,8.50
2022-08-14T14:53:13.065Z,13.70
2022-08-14T14:55:59.629Z,10.90
2022-08-14T14:58:24.670Z,9.70
2022-08-14T15:00:47.501Z,9.90
2022-08-14T15:03:13.655Z,9.60
2022-08-14T15:05:36.348Z,10.30
2022-08-14T15:08:01.381Z,10.60
2022-08-14T15:10:34.314Z,9.90
2022-08-14T15:13:04.166Z,8.50
2022-08-14T15:15:27.846Z,12.40
2022-08-14T15:17:54.554Z,11.60
2022-08-14T15:20:30.559Z,11.30
2022-08-14T15:22:54.248Z,10.40
2022-08-14T15:25:18.596Z,9.50
2022-08-14T15:27:44.358Z,10.80
2022-08-14T15:30:08.170Z,9.80
2022-08-14T15:32:33.804Z,11.30
2022-08-14T15:35:00.724Z,12.70
2022-08-14T15:37:25.465Z,9.10
2022-08-14T15:39:56.791Z,9.40
2022-08-14T15:42:23.111Z,12.20
2022-08-14T15:44:57.985Z,8.90
2022-08-14T15:47:28.959Z,11.20
2022-08-14T15:49:58.373Z,9.40
2022-08-14T15:52:42.433Z,9.30
2022-08-14T15:55:13.127Z,10.50
2022-08-14T15:57:38.573Z,9.30
2022-08-14T16:00:43.986Z,10.40
2022-08-14T16:03:16.504Z,11.30
2022-08-14T16:05:41.104Z,12.10
2022-08-14T16:08:07.108Z,11.10
2022-08-14T16:10:49.826Z,10.80
2022-08-14T16:13:17.128Z,11.10
2022-08-14T16:15:59.582Z,10.40
2022-08-14T16:18:42.261Z,12.70
2022-08-14T16:21:15.497Z,8.70
2022-08-14T16:23:44.352Z,8.60
2022-08-14T16:26:11.043Z,11.50
2022-08-14T16:28:42.378Z,12.00
2022-08-14T16:31:06.254Z,9.80
2022-08-14T16:33:58.890Z,10.80
2022-08-14T16:36:30.350Z,9.90
2022-08-14T16:39:00.087Z,10.40
2022-08-14T16:41:29.479Z,9.70
2022-08-14T16:44:02.153Z,8.70
2022-08-14T16:46:25.185Z,10.60
2022-08-14T16:48:57.201Z,11.10
2022-08-14T16:51:24.088Z,12.20
2022-08-14T16:53:50.135Z,9.00
2022-08-14T16:56:23.252Z,13.00
2022-08-14T16:58:49.965Z,9.50
2022-08-14T17:01:22.998Z,11.30
2022-08-14T17:03:52.204Z,10.50
2022-08-14T17:06:36.317Z,12.30
2022-08-14T17:08:58.998Z,8.30
2022-08-14T17:11:24.257Z,10.30
2022-08-14T17:14:00.376Z,10.20
2022-08-14T17:16:26.117Z,12.10
2022-08-14T17:19:00.046Z,11.30
2022-08-14T17:21:31.773Z,11.90
2022-08-14T17:24:01.129Z,11.70
2022-08-14T17:26:55.286Z,10.50
2022-08-14T17:29:18.503Z,13.00
2022-08-14T17:31:57.993Z,11.30
2022-08-14T17:34:22.447Z,11.80
2022-08-14T17:36:48.244Z,14.40
2022-08-14T17:39:13.503Z,9.90
2022-08-14T17:42:02.964Z,13.30
2022-08-14T17:44:34.245Z,10.90
2022-08-14T17:47:08.449Z,11.40
2022-08-14T17:49:33.312Z,8.70
2022-08-14T17:52:01.784Z,13.20
2022-08-14T17:54:34.694Z,10.90
2022-08-14T17:57:03.187Z,12.70
2022-08-14T17:59:37.456Z,12.90
2022-08-14T18:02:00.765Z,11.70
2022-08-14T18:04:28.480Z,8.50
2022-08-14T18:07:06.128Z,8.50
2022-08-14T18:09:49.835Z,12.10
2022-08-14T18:12:32.468Z,10.50
2022-08-14T18:14:55.365Z,9.80
2022-08-14T18:17:23.024Z,9.80
2022-08-14T18:19:52.389Z,8.30
2022-08-14T18:22:31.882Z,13.00
2022-08-14T18:25:02.350Z,5.20
2022-08-14T18:27:31.975Z,5.20
2022-08-14T18:30:00.288Z,9.00
2022-08-14T18:32:46.248Z,4.70
2022-08-14T18:35:13.029Z,18.60
2022-08-14T18:37:38.940Z,40.20
2022-08-14T18:40:17.829Z,26.40
2022-08-14T18:42:43.974Z,19.50
2022-08-14T18:45:12.537Z,7.90
2022-08-14T18:48:14.428Z,11.80
2022-08-14T18:50:31.106Z,28.70
2022-08-14T18:52:54.206Z,27.10
2022-08-14T18:55:16.814Z,18.00
2022-08-14T18:57:58.061Z,24.00
2022-08-14T19:00:33.005Z,9.10
2022-08-14T19:02:59.977Z,10.60
2022-08-14T19:05:38.005Z,8.90
2022-08-14T19:08:17.217Z,19.10
2022-08-14T19:10:39.998Z,18.10
2022-08-14T19:13:13.190Z,18.90
2022-08-14T19:15:44.613Z,15.30
2022-08-14T19:18:26.376Z,15.20
2022-08-14T19:20:53.291Z,9.20
2022-08-14T19:23:21.946Z,10.90
2022-08-14T19:25:51.654Z,42.30
2022-08-14T19:28:31.041Z,51.10
2022-08-14T19:31:14.776Z,37.70
2022-08-14T19:33:45.762Z,55.30
2022-08-14T19:36:28.653Z,54.50
2022-08-14T19:38:57.427Z,53.70
2022-08-14T19:41:24.629Z,56.60
2022-08-14T19:43:56.747Z,28.70
2022-08-14T19:46:39.473Z,44.80
2022-08-14T19:49:11.469Z,34.60
2022-08-14T19:51:43.537Z,26.90
2022-08-14T19:54:20.628Z,53.80
2022-08-14T19:56:47.905Z,29.90
2022-08-14T19:59:11.338Z,31.20
2022-08-14T20:01:38.135Z,37.40
2022-08-14T20:04:04.522Z,46.10
2022-08-14T20:06:28.004Z,28.40
2022-08-14T20:10:59.869Z,32.00
2022-08-14T20:12:01.874Z,40.40
2022-08-14T20:14:29.911Z,40.00
2022-08-14T20:17:06.283Z,39.30
2022-08-14T20:19:37.797Z,47.70
2022-08-14T20:22:36.444Z,41.80
2022-08-14T20:24:54.410Z,51.10
2022-08-14T20:27:17.692Z,41.60
2022-08-14T20:29:43.503Z,34.10
2022-08-14T20:32:11.096Z,36.20
2022-08-14T20:34:40.674Z,33.80
2022-08-14T20:37:22.010Z,25.40
2022-08-14T20:39:54.709Z,19.80
2022-08-14T20:42:38.874Z,13.90
2022-08-14T20:45:23.600Z,21.10
2022-08-14T20:47:51.024Z,24.70
2022-08-14T20:50:22.414Z,47.70
2022-08-14T20:52:51.142Z,53.30
2022-08-14T20:55:21.025Z,31.30
2022-08-14T20:57:45.968Z,31.70
2022-08-14T21:00:52.430Z,33.60
2022-08-14T21:03:34.786Z,45.70
2022-08-14T21:06:17.150Z,41.60
2022-08-14T21:08:43.167Z,41.00
2022-08-14T21:11:17.751Z,40.10
2022-08-14T21:14:26.954Z,26.10
2022-08-14T21:16:33.706Z,48.40
2022-08-14T21:19:02.186Z,24.30
2022-08-14T21:21:40.412Z,11.30
2022-08-14T21:24:05.014Z,26.30
2022-08-14T21:26:51.487Z,12.90
2022-08-14T21:29:16.499Z,8.60
2022-08-14T21:31:39.346Z,14.80
2022-08-14T21:34:05.671Z,14.50
2022-08-14T21:36:54.651Z,30.60
2022-08-14T21:39:19.068Z,32.20
2022-08-14T21:41:50.283Z,19.80
2022-08-14T21:44:22.011Z,10.50
2022-08-14T21:46:47.130Z,27.60
2022-08-14T21:49:12.129Z,12.20
2022-08-14T21:51:52.986Z,11.00
2022-08-14T21:54:32.594Z,11.70
2022-08-14T21:57:03.314Z,38.10
2022-08-14T21:59:36.985Z,25.90
2022-08-14T22:02:04.193Z,42.70
2022-08-14T22:04:34.369Z,43.20
2022-08-14T22:07:00.078Z,37.00
2022-08-14T22:09:29.080Z,62.60
2022-08-14T22:11:59.125Z,27.70
2022-08-14T22:14:26.658Z,27.70
2022-08-14T22:17:01.851Z,8.10
2022-08-14T22:19:47.264Z,15.60
2022-08-14T22:22:20.096Z,27.50
2022-08-14T22:24:53.801Z,20.00
2022-08-14T22:27:17.073Z,12.80
2022-08-14T22:29:44.162Z,20.70
2022-08-14T22:32:09.553Z,8.30
2022-08-14T22:34:32.665Z,15.20
2022-08-14T22:36:58.070Z,9.40
2022-08-14T22:40:17.611Z,12.30
2022-08-14T22:42:19.263Z,9.40
2022-08-14T22:44:46.833Z,12.30
2022-08-14T22:47:09.495Z,11.00
2022-08-14T22:50:30.670Z,8.50
2022-08-14T22:52:33.029Z,11.10
2022-08-14T22:54:59.193Z,12.50
2022-08-14T22:57:22.658Z,13.10
2022-08-14T22:59:45.333Z,13.60
2022-08-14T23:02:30.664Z,11.00
2022-08-14T23:04:57.043Z,10.60
2022-08-14T23:07:22.746Z,10.00
2022-08-14T23:09:55.805Z,11.00
2022-08-14T23:12:28.283Z,13.40
2022-08-14T23:14:52.087Z,11.90
2022-08-14T23:17:16.244Z,15.30
2022-08-14T23:19:43.592Z,11.60
2022-08-14T23:22:10.391Z,14.50
2022-08-14T23:24:41.588Z,13.20
2022-08-14T23:27:09.335Z,11.80
2022-08-14T23:29:32.869Z,13.60
2022-08-14T23:31:59.056Z,13.50
2022-08-14T23:34:25.314Z,14.40
2022-08-14T23:36:55.771Z,8.50
2022-08-14T23:39:19.918Z,12.00
2022-08-14T23:41:45.742Z,20.30
2022-08-14T23:44:09.172Z,17.00
2022-08-14T23:46:34.551Z,18.90
2022-08-14T23:49:00.723Z,13.10
2022-08-14T23:51:28.470Z,18.10
2022-08-14T23:54:01.253Z,13.30
2022-08-14T23:56:31.933Z,24.80
2022-08-14T23:58:55.657Z,15.40
